Time;durP1;ratioP1;P1;durP2;ratioP2;P2;SDS_P1;SDS_P2;PMS_P1;PMS_P2;Temp;Humidity;BMP_temperature;BMP_pressure;BME280_temperature;BME280_humidity;BME280_pressure;Samples;Min_cycle;Max_cycle;Signal;HPM_P1;HPM_P2
2022/05/11 00:00:45;;;;;;;10.88;6.60;;;13.70;99.90;;;;;;5016669;28;20045;-64
2022/05/11 00:03:12;;;;;;;10.57;5.75;;;13.90;99.90;;;;;;5033262;28;20047;-64
2022/05/11 00:05:38;;;;;;;16.35;7.50;;;;;;;;;;5034994;28;20033;-65
2022/05/11 00:08:05;;;;;;;9.57;6.90;;;13.80;99.90;;;;;;5016512;28;20522;-65
2022/05/11 00:10:31;;;;;;;12.48;6.90;;;;;;;;;;5034892;28;20045;-64
2022/05/11 00:12:57;;;;;;;11.80;6.60;;;;;;;;;;5000645;28;20041;-63
2022/05/11 00:15:24;;;;;;;13.00;6.18;;;13.70;99.90;;;;;;5016334;28;20416;-64
2022/05/11 00:17:50;;;;;;;10.75;6.65;;;;;;;;;;5016860;28;20048;-63
2022/05/11 00:20:18;;;;;;;9.82;6.70;;;13.70;99.90;;;;;;5017010;28;20041;-64
2022/05/11 00:22:44;;;;;;;9.50;6.93;;;13.70;99.90;;;;;;5017174;28;20036;-65
2022/05/11 00:25:13;;;;;;;13.15;6.85;;;13.70;99.90;;;;;;5034457;28;20048;-64
2022/05/11 00:27:38;;;;;;;11.25;7.13;;;13.70;99.90;;;;;;5034394;28;20033;-63
2022/05/11 00:30:06;;;;;;;11.48;6.18;;;13.90;99.90;;;;;;5033689;28;20064;-63
2022/05/11 00:32:31;;;;;;;13.48;6.82;;;;;;;;;;5033857;28;20132;-64
2022/05/11 00:34:57;;;;;;;10.02;6.95;;;;;;;;;;5016182;28;20517;-64
2022/05/11 00:37:24;;;;;;;10.82;6.32;;;13.80;99.90;;;;;;5016440;28;20037;-64
2022/05/11 00:39:50;;;;;;;13.15;6.88;;;;;;;;;;5034104;28;20080;-64
2022/05/11 00:42:16;;;;;;;12.18;6.32;;;13.70;99.90;;;;;;5034872;28;20053;-63
2022/05/11 00:44:42;;;;;;;10.63;6.72;;;;;;;;;;5034880;28;20041;-65
2022/05/11 00:47:20;;;;;;;12.57;5.85;;;13.80;99.90;;;;;;4997893;28;20076;-64
2022/05/11 00:49:51;;;;;;;14.90;6.63;;;13.60;99.90;;;;;;4997001;28;20089;-64
2022/05/11 00:52:24;;;;;;;11.50;6.05;;;13.60;99.90;;;;;;5014814;28;20042;-64
2022/05/11 00:54:58;;;;;;;9.45;6.18;;;13.40;99.90;;;;;;5012804;28;20034;-64
2022/05/11 00:57:41;;;;;;;8.60;5.97;;;13.60;99.90;;;;;;4980365;28;20044;-65
2022/05/11 01:00:10;;;;;;;10.75;6.03;;;13.60;99.90;;;;;;4980296;28;20492;-65
2022/05/11 01:02:38;;;;;;;10.02;5.68;;;13.50;99.90;;;;;;4996208;28;20057;-64
2022/05/11 01:05:06;;;;;;;9.25;5.82;;;13.60;99.90;;;;;;4996317;28;20045;-64
2022/05/11 01:07:33;;;;;;;12.23;6.55;;;13.50;99.90;;;;;;5012371;28;20054;-64
2022/05/11 01:09:58;;;;;;;9.23;6.28;;;13.50;99.90;;;;;;4979971;28;20044;-64
2022/05/11 01:12:31;;;;;;;9.13;5.70;;;13.50;99.90;;;;;;5012334;28;20038;-64
2022/05/11 01:15:00;;;;;;;13.32;6.22;;;13.60;99.90;;;;;;5013677;28;20057;-64
2022/05/11 01:17:28;;;;;;;10.10;6.18;;;13.60;99.90;;;;;;4995969;28;20415;-64
2022/05/11 01:19:54;;;;;;;10.43;5.72;;;;;;;;;;5012336;28;20056;-64
2022/05/11 01:22:39;;;;;;;9.60;5.95;;;13.50;99.90;;;;;;5013013;28;20050;-64
2022/05/11 01:25:06;;;;;;;13.27;5.68;;;13.50;99.90;;;;;;5013293;28;20057;-64
2022/05/11 01:27:38;;;;;;;9.55;5.85;;;13.50;99.90;;;;;;4984008;28;20049;-63
2022/05/11 01:30:24;;;;;;;9.73;5.57;;;13.50;99.90;;;;;;5018480;28;20056;-63
2022/05/11 01:32:53;;;;;;;8.25;5.68;;;13.40;99.90;;;;;;5017787;28;20056;-63
2022/05/11 01:35:33;;;;;;;8.60;5.72;;;13.50;99.90;;;;;;5017019;28;20038;-64
2022/05/11 01:38:19;;;;;;;11.13;5.38;;;13.50;99.90;;;;;;5017107;28;20475;-63
2022/05/11 01:40:44;;;;;;;7.20;5.00;;;13.50;99.90;;;;;;4985939;28;20132;-65
2022/05/11 01:43:22;;;;;;;11.73;5.05;;;13.60;99.90;;;;;;5016563;28;20556;-65
2022/05/11 01:45:48;;;;;;;5.63;4.88;;;13.50;99.90;;;;;;5016555;28;20046;-64
2022/05/11 01:48:14;;;;;;;10.73;4.97;;;13.50;99.90;;;;;;5016601;28;20038;-64
2022/05/11 01:50:40;;;;;;;10.77;5.40;;;13.50;99.90;;;;;;4998915;28;20046;-64
2022/05/11 01:53:06;;;;;;;7.93;5.28;;;13.50;99.90;;;;;;4982974;28;20034;-65
2022/05/11 01:55:33;;;;;;;10.07;5.40;;;13.40;99.90;;;;;;5016390;28;20038;-65
2022/05/11 01:58:00;;;;;;;9.65;5.70;;;13.60;99.90;;;;;;5015507;28;20164;-64
2022/05/11 02:00:26;;;;;;;7.40;5.22;;;;;;;;;;4999492;28;20033;-64
2022/05/11 02:02:52;;;;;;;9.40;5.20;;;13.50;99.90;;;;;;4999904;28;20042;-65
2022/05/11 02:08:02;;;;;;;9.80;5.30;;;13.40;99.90;;;;;;4997463;28;20054;-64
2022/05/11 02:10:28;;;;;;;9.43;5.10;;;13.30;99.90;;;;;;4979595;28;20169;-64
2022/05/11 02:12:57;;;;;;;10.88;5.20;;;13.40;99.90;;;;;;4963412;28;20129;-64
2022/05/11 02:15:24;;;;;;;12.52;5.30;;;13.40;99.90;;;;;;4963231;28;20070;-64
2022/05/11 02:17:50;;;;;;;6.57;4.68;;;;;;;;;;4979268;28;20045;-64
2022/05/11 02:20:17;;;;;;;11.65;5.03;;;13.50;99.90;;;;;;4996982;28;20046;-64
2022/05/11 02:22:43;;;;;;;11.00;5.88;;;;;;;;;;4962969;28;20488;-64
2022/05/11 02:25:10;;;;;;;12.18;5.13;;;13.50;99.90;;;;;;4979089;28;20076;-64
2022/05/11 02:27:36;;;;;;;12.52;6.55;;;13.30;99.90;;;;;;4962591;28;20078;-64
2022/05/11 02:30:03;;;;;;;6.97;4.47;;;13.30;99.90;;;;;;4996646;28;20515;-64
2022/05/11 02:32:28;;;;;;;8.30;5.13;;;13.30;99.90;;;;;;4996530;28;20034;-64
2022/05/11 02:35:13;;;;;;;9.18;4.35;;;;;;;;;;4978847;28;20049;-64
2022/05/11 02:37:55;;;;;;;11.57;5.63;;;13.50;99.90;;;;;;4978218;28;20046;-64
2022/05/11 02:40:29;;;;;;;7.85;5.65;;;13.40;99.90;;;;;;4995504;28;20425;-64
2022/05/11 02:42:55;;;;;;;9.63;5.53;;;13.30;99.90;;;;;;4963561;28;20038;-64
2022/05/11 02:45:22;;;;;;;10.27;5.30;;;13.30;99.90;;;;;;5001741;28;20099;-64
2022/05/11 02:47:49;;;;;;;7.32;5.70;;;13.20;99.90;;;;;;5015592;28;20464;-64
2022/05/11 02:50:27;;;;;;;10.63;5.63;;;13.40;99.90;;;;;;4981819;28;20447;-64
2022/05/11 02:52:53;;;;;;;13.95;5.63;;;;;;;;;;4998164;28;20052;-64
2022/05/11 02:55:19;;;;;;;12.00;6.28;;;13.40;99.90;;;;;;5016112;28;20407;-64
2022/05/11 02:57:45;;;;;;;12.70;5.70;;;13.20;99.90;;;;;;4998492;28;20124;-64
2022/05/11 03:00:16;;;;;;;10.07;5.85;;;13.50;99.90;;;;;;4982693;28;20116;-64
2022/05/11 03:02:42;;;;;;;9.73;5.45;;;13.20;99.90;;;;;;5015157;28;20426;-65
2022/05/11 03:05:11;;;;;;;9.15;5.53;;;13.20;99.90;;;;;;4998097;28;20041;-65
2022/05/11 03:07:37;;;;;;;10.48;6.28;;;;;;;;;;5015679;28;20038;-64
2022/05/11 03:10:03;;;;;;;13.07;6.25;;;;;;;;;;5016148;28;20069;-65
2022/05/11 03:12:31;;;;;;;8.85;5.38;;;13.40;99.90;;;;;;4998516;28;20046;-64
2022/05/11 03:14:57;;;;;;;11.13;6.88;;;13.30;99.90;;;;;;5015127;28;20065;-65
2022/05/11 03:17:23;;;;;;;12.52;5.78;;;;;;;;;;5013788;28;20049;-65
2022/05/11 03:19:49;;;;;;;12.40;5.30;;;13.30;99.90;;;;;;4997804;28;20045;-64
2022/05/11 03:22:15;;;;;;;10.13;5.78;;;;;;;;;;4982090;28;20176;-64
2022/05/11 03:24:40;;;;;;;9.73;5.68;;;13.20;99.90;;;;;;5016721;28;20042;-65
2022/05/11 03:27:06;;;;;;;10.45;5.47;;;13.40;99.90;;;;;;5015651;28;20038;-65
2022/05/11 03:29:33;;;;;;;8.57;5.13;;;13.40;99.90;;;;;;4998182;28;20038;-64
2022/05/11 03:34:43;;;;;;;8.55;5.20;;;13.40;99.90;;;;;;5015018;28;20042;-65
2022/05/11 03:37:11;;;;;;;11.00;5.70;;;13.50;99.90;;;;;;5014775;28;20049;-64
2022/05/11 03:39:37;;;;;;;10.23;4.85;;;13.40;99.90;;;;;;4998103;28;20488;-64
2022/05/11 03:42:07;;;;;;;11.05;4.80;;;13.30;99.90;;;;;;4998452;28;20065;-65
2022/05/11 03:44:33;;;;;;;7.10;4.82;;;13.30;99.90;;;;;;5014193;28;20080;-64
2022/05/11 03:46:59;;;;;;;11.30;5.50;;;13.50;99.90;;;;;;5014669;28;20464;-64
2022/05/11 03:49:25;;;;;;;9.27;5.00;;;;;;;;;;5015152;28;20061;-64
2022/05/11 03:51:51;;;;;;;12.20;4.90;;;;;;;;;;5015677;28;20111;-64
2022/05/11 03:54:17;;;;;;;7.88;4.75;;;13.50;99.90;;;;;;5015700;28;20073;-65
2022/05/11 03:56:43;;;;;;;11.02;4.63;;;;;;;;;;5015161;28;20049;-64
2022/05/11 03:59:09;;;;;;;10.77;5.35;;;;;;;;;;5004373;28;20401;-65
2022/05/11 04:01:35;;;;;;;9.77;4.95;;;13.60;99.90;;;;;;4962920;28;20049;-65
2022/05/11 04:04:01;;;;;;;12.20;4.60;;;13.60;99.90;;;;;;4977982;28;20052;-65
2022/05/11 04:06:27;;;;;;;10.75;4.13;;;13.60;99.90;;;;;;4994277;28;20042;-65
2022/05/11 04:08:52;;;;;;;13.80;4.60;;;13.40;99.90;;;;;;4992837;28;20097;-65
2022/05/11 04:11:19;;;;;;;7.20;4.10;;;;;;;;;;4989676;28;20054;-65
2022/05/11 04:13:45;;;;;;;10.00;4.60;;;13.60;99.90;;;;;;4990533;28;20090;-65
2022/05/11 04:16:11;;;;;;;10.63;5.05;;;;;;;;;;4990006;28;20088;-65
2022/05/11 04:18:37;;;;;;;11.07;4.75;;;13.50;99.90;;;;;;4990443;28;20069;-65
2022/05/11 04:21:03;;;;;;;10.73;4.82;;;;;;;;;;4990760;28;20143;-65
2022/05/11 04:23:29;;;;;;;8.52;4.38;;;;;;;;;;4973432;28;20045;-65
2022/05/11 04:25:56;;;;;;;13.20;4.45;;;13.70;99.90;;;;;;4990787;28;20057;-65
2022/05/11 04:28:23;;;;;;;19.73;6.25;;;;;;;;;;4990715;28;20519;-65
2022/05/11 04:30:48;;;;;;;15.77;4.88;;;13.70;99.90;;;;;;4973381;28;20064;-65
2022/05/11 04:33:14;;;;;;;8.88;4.15;;;13.70;99.90;;;;;;4973294;28;20038;-65
2022/05/11 04:35:40;;;;;;;14.90;5.03;;;;;;;;;;4997927;28;20042;-65
2022/05/11 04:38:07;;;;;;;7.65;4.13;;;13.80;99.90;;;;;;4993140;28;20077;-65
2022/05/11 04:40:34;;;;;;;12.35;5.40;;;13.70;99.90;;;;;;4992640;28;20049;-65
2022/05/11 04:43:09;;;;;;;12.63;5.00;;;13.80;99.90;;;;;;4976446;28;20046;-65
2022/05/11 04:45:40;;;;;;;15.18;5.13;;;14.00;99.90;;;;;;4989401;28;20046;-65
2022/05/11 04:48:06;;;;;;;11.60;5.25;;;13.70;99.90;;;;;;4989757;28;20038;-65
2022/05/11 04:50:32;;;;;;;16.55;5.30;;;;;;;;;;4973336;28;20059;-65
2022/05/11 04:52:58;;;;;;;9.57;4.60;;;13.80;99.90;;;;;;4989441;28;20049;-65
2022/05/11 04:55:24;;;;;;;15.60;4.97;;;13.80;99.90;;;;;;4995773;28;20031;-65
2022/05/11 04:57:49;;;;;;;10.45;5.13;;;13.90;99.90;;;;;;4988669;28;20058;-64
2022/05/11 05:00:15;;;;;;;16.38;5.47;;;13.80;99.90;;;;;;5000751;28;20038;-65
2022/05/11 05:02:41;;;;;;;10.48;5.13;;;13.80;99.90;;;;;;5010252;28;20133;-65
2022/05/11 05:05:10;;;;;;;14.98;5.10;;;13.90;99.90;;;;;;5005035;28;20061;-65
2022/05/11 05:07:36;;;;;;;10.90;4.15;;;;;;;;;;4990008;28;20045;-65
2022/05/11 05:10:06;;;;;;;13.27;5.63;;;13.80;99.90;;;;;;4990525;28;20464;-65
2022/05/11 05:12:32;;;;;;;11.43;4.88;;;;;;;;;;5007888;28;20045;-65
2022/05/11 05:14:58;;;;;;;9.02;4.63;;;13.90;99.90;;;;;;5010210;28;20116;-65
2022/05/11 05:17:24;;;;;;;12.02;5.32;;;14.00;99.90;;;;;;5010309;28;20046;-65
2022/05/11 05:19:50;;;;;;;13.45;5.18;;;13.90;99.90;;;;;;5010069;28;20567;-65
2022/05/11 05:22:16;;;;;;;11.00;5.07;;;13.90;99.90;;;;;;5002048;28;20055;-65
2022/05/11 05:24:43;;;;;;;11.77;5.45;;;14.00;99.90;;;;;;4987821;28;20081;-65
2022/05/11 05:27:14;;;;;;;10.10;4.35;;;14.00;99.90;;;;;;4975886;28;20042;-65
2022/05/11 05:32:24;;;;;;;13.38;4.68;;;14.00;99.90;;;;;;4992241;28;20416;-65
2022/05/11 05:34:49;;;;;;;13.85;4.85;;;14.10;99.90;;;;;;4990529;28;20034;-65
2022/05/11 05:37:17;;;;;;;11.00;4.80;;;14.20;99.90;;;;;;4990505;28;20558;-65
2022/05/11 05:39:43;;;;;;;10.77;4.63;;;14.10;99.90;;;;;;4989388;28;20038;-65
2022/05/11 05:42:19;;;;;;;11.93;4.53;;;14.10;99.90;;;;;;4973428;28;20065;-65
2022/05/11 05:44:45;;;;;;;12.52;5.25;;;;;;;;;;4991892;28;20049;-65
2022/05/11 05:47:11;;;;;;;10.75;5.07;;;14.20;99.90;;;;;;4992636;28;20057;-65
2022/05/11 05:49:37;;;;;;;13.80;5.22;;;14.30;99.90;;;;;;4992343;28;20057;-65
2022/05/11 05:52:04;;;;;;;21.25;5.05;;;;;;;;;;5009728;28;20037;-65
2022/05/11 05:54:35;;;;;;;12.15;4.88;;;14.40;99.90;;;;;;4993979;28;20064;-65
2022/05/11 05:57:01;;;;;;;14.20;5.82;;;;;;;;;;5012080;28;20045;-65
2022/05/11 05:59:26;;;;;;;12.25;6.00;;;14.30;99.90;;;;;;5003187;28;20045;-65
2022/05/11 06:01:52;;;;;;;15.07;5.10;;;14.40;99.90;;;;;;4989519;28;20041;-65
2022/05/11 06:04:18;;;;;;;13.85;5.65;;;14.40;99.90;;;;;;4991212;28;20107;-65
2022/05/11 06:06:43;;;;;;;10.35;4.60;;;14.50;99.90;;;;;;4974702;28;20041;-65
2022/05/11 06:09:09;;;;;;;15.60;5.80;;;;;;;;;;5008434;28;20045;-65
2022/05/11 06:11:36;;;;;;;10.93;4.68;;;14.40;99.90;;;;;;5007948;28;20056;-65
2022/05/11 06:14:03;;;;;;;13.20;4.93;;;14.60;99.90;;;;;;5012782;28;20058;-65
2022/05/11 06:16:28;;;;;;;12.20;5.13;;;14.40;99.90;;;;;;5012759;28;20165;-65
2022/05/11 06:18:54;;;;;;;9.25;4.63;;;14.50;99.90;;;;;;4994616;28;20125;-65
2022/05/11 06:21:20;;;;;;;12.73;5.28;;;14.60;99.90;;;;;;4991706;28;20124;-65
2022/05/11 06:23:46;;;;;;;9.52;4.40;;;14.60;99.90;;;;;;4990598;28;20054;-64
2022/05/11 06:26:12;;;;;;;13.02;5.50;;;14.60;99.90;;;;;;5006279;28;20042;-65
2022/05/11 06:28:42;;;;;;;16.02;5.32;;;14.50;99.90;;;;;;5012697;28;20054;-65
2022/05/11 06:31:09;;;;;;;10.73;4.93;;;14.80;99.90;;;;;;5011405;28;20069;-65
2022/05/11 06:33:35;;;;;;;10.02;4.78;;;14.70;99.90;;;;;;5010624;28;20053;-65
2022/05/11 06:36:02;;;;;;;11.27;5.45;;;14.80;99.90;;;;;;5012014;28;20042;-65
2022/05/11 06:38:27;;;;;;;12.25;4.72;;;14.80;99.90;;;;;;5012610;28;20057;-64
2022/05/11 06:40:53;;;;;;;10.90;4.55;;;14.80;99.90;;;;;;5012781;28;20046;-64
2022/05/11 06:43:18;;;;;;;11.65;4.82;;;15.00;99.90;;;;;;4992791;28;20046;-64
2022/05/11 06:45:44;;;;;;;11.85;4.88;;;14.90;99.90;;;;;;4995960;28;20488;-65
2022/05/11 06:48:10;;;;;;;14.93;5.15;;;14.90;99.90;;;;;;5011504;28;20034;-66
2022/05/11 06:50:35;;;;;;;10.18;4.78;;;;;;;;;;5012369;28;20459;-65
2022/05/11 06:53:10;;;;;;;11.30;4.70;;;14.90;99.90;;;;;;4995109;28;20054;-65
2022/05/11 07:01:13;;;;;;;11.38;4.05;;;;;;;;;;5008348;28;20136;-65
2022/05/11 07:03:39;;;;;;;9.93;4.00;;;;;;;;;;4986073;28;20048;-64
2022/05/11 07:06:05;;;;;;;15.95;4.50;;;15.20;99.90;;;;;;5001861;28;20046;-64
2022/05/11 07:08:40;;;;;;;13.70;4.38;;;15.10;99.90;;;;;;5001847;28;20034;-64
2022/05/11 07:13:53;;;;;;;10.70;3.72;;;15.30;99.90;;;;;;5008430;28;20575;-65
2022/05/11 07:16:19;;;;;;;10.88;3.55;;;15.30;99.90;;;;;;5006213;28;20048;-66
2022/05/11 07:18:45;;;;;;;10.95;3.17;;;15.30;99.90;;;;;;4993548;28;20050;-64
2022/05/11 07:21:10;;;;;;;14.40;3.05;;;15.30;99.90;;;;;;5008675;28;20518;-65
2022/05/11 07:23:36;;;;;;;8.90;2.70;;;15.40;99.90;;;;;;5008858;28;20137;-65
2022/05/11 07:26:02;;;;;;;9.32;2.53;;;15.30;99.90;;;;;;5008785;28;20042;-65
2022/05/11 07:28:28;;;;;;;12.45;3.10;;;15.40;99.90;;;;;;5000338;28;20077;-65
2022/05/11 07:30:54;;;;;;;12.63;2.47;;;15.50;99.90;;;;;;4995687;28;20038;-65
2022/05/11 07:33:19;;;;;;;11.30;2.92;;;15.50;99.90;;;;;;4996071;28;20042;-65
2022/05/11 07:35:45;;;;;;;8.88;2.50;;;15.60;99.90;;;;;;4998052;28;20040;-64
2022/05/11 07:38:14;;;;;;;16.58;2.90;;;15.70;99.90;;;;;;4998687;28;20077;-65
2022/05/11 07:40:41;;;;;;;8.70;2.65;;;15.60;99.90;;;;;;4999746;28;20533;-66
2022/05/11 07:43:08;;;;;;;12.90;2.88;;;15.60;99.90;;;;;;5008257;28;20040;-65
2022/05/11 07:45:33;;;;;;;11.32;3.10;;;15.60;99.90;;;;;;4994006;28;20092;-65
2022/05/11 07:47:59;;;;;;;10.82;2.20;;;15.60;99.90;;;;;;4991296;28;20049;-65
2022/05/11 07:50:25;;;;;;;15.55;2.83;;;15.70;99.90;;;;;;5005500;28;20121;-65
2022/05/11 07:52:50;;;;;;;9.30;3.13;;;15.70;99.90;;;;;;4976411;28;20050;-65
2022/05/11 07:55:17;;;;;;;8.98;2.80;;;15.70;99.90;;;;;;4992420;28;20048;-65
2022/05/11 08:00:28;;;;;;;10.07;2.50;;;16.10;99.90;;;;;;5001498;28;20046;-66
2022/05/11 08:02:53;;;;;;;15.43;3.00;;;16.20;99.90;;;;;;4992372;28;20050;-65
2022/05/11 08:05:20;;;;;;;11.65;2.67;;;16.30;99.90;;;;;;5007157;28;20060;-65
2022/05/11 08:07:52;;;;;;;13.00;2.50;;;16.20;99.90;;;;;;5009120;28;20451;-65
2022/05/11 08:10:30;;;;;;;9.55;2.42;;;16.30;99.90;;;;;;4990481;28;20057;-65
2022/05/11 08:12:56;;;;;;;17.35;3.63;;;16.30;99.90;;;;;;5009287;28;20511;-65
2022/05/11 08:15:23;;;;;;;10.82;2.45;;;16.40;99.90;;;;;;4991443;28;20567;-65
2022/05/11 08:17:51;;;;;;;9.77;2.70;;;16.40;99.90;;;;;;4992287;28;20081;-65
2022/05/11 08:20:24;;;;;;;13.05;2.88;;;16.40;99.90;;;;;;4991621;28;20060;-65
2022/05/11 08:22:51;;;;;;;10.25;2.50;;;16.40;99.90;;;;;;4986187;28;20471;-66
2022/05/11 08:25:21;;;;;;;15.63;2.50;;;16.40;99.90;;;;;;5008412;28;20073;-65
2022/05/11 08:27:48;;;;;;;8.60;2.17;;;16.50;99.90;;;;;;5008453;28;20137;-65
2022/05/11 08:35:49;;;;;;;11.27;2.78;;;16.50;99.90;;;;;;4989738;28;20097;-65
2022/05/11 08:38:16;;;;;;;19.77;3.20;;;16.50;99.90;;;;;;5008210;28;20038;-66
2022/05/11 08:41:16;;;;;;;17.75;3.35;;;16.60;99.90;;;;;;4989916;28;20476;-65
2022/05/11 08:43:43;;;;;;;7.97;2.53;;;16.60;99.90;;;;;;4999274;28;20049;-65
2022/05/11 08:46:34;;;;;;;20.77;3.13;;;16.70;99.90;;;;;;4990446;28;20033;-65
2022/05/11 08:49:33;;;;;;;17.63;2.72;;;16.80;99.90;;;;;;5006405;28;20088;-66
2022/05/11 08:52:01;;;;;;;11.57;2.50;;;16.90;99.90;;;;;;4980312;28;20049;-66
2022/05/11 08:54:39;;;;;;;19.27;3.58;;;16.70;99.90;;;;;;4976957;28;20085;-65
2022/05/11 08:57:11;;;;;;;10.90;3.17;;;17.00;99.90;;;;;;5002029;28;20046;-66
2022/05/11 08:59:37;;;;;;;16.83;3.40;;;17.10;99.90;;;;;;5007292;28;20069;-66
2022/05/11 09:02:19;;;;;;;8.38;1.85;;;17.30;99.90;;;;;;4992974;28;20053;-66
2022/05/11 09:04:53;;;;;;;10.70;2.45;;;17.10;99.90;;;;;;5005420;28;20080;-66
2022/05/11 09:07:19;;;;;;;14.82;3.17;;;17.70;99.90;;;;;;5005451;28;20136;-65
2022/05/11 09:09:45;;;;;;;14.35;3.15;;;17.70;99.90;;;;;;5008205;28;20037;-66
2022/05/11 09:12:11;;;;;;;12.55;2.78;;;17.80;99.90;;;;;;5010223;28;20129;-66
2022/05/11 09:14:45;;;;;;;17.58;3.63;;;17.80;99.90;;;;;;4990465;28;20104;-66
2022/05/11 09:17:34;;;;;;;14.75;2.60;;;17.80;99.90;;;;;;5002196;28;20073;-65
2022/05/11 09:20:08;;;;;;;10.82;2.88;;;17.80;99.90;;;;;;4985637;28;20042;-66
2022/05/11 09:22:41;;;;;;;9.18;2.50;;;17.60;99.90;;;;;;4999633;28;20054;-64
2022/05/11 09:25:31;;;;;;;12.52;3.53;;;17.80;99.90;;;;;;5005069;28;20046;-65
2022/05/11 09:28:20;;;;;;;10.73;3.03;;;17.90;99.90;;;;;;4977616;28;20038;-66
2022/05/11 09:31:16;;;;;;;13.20;3.10;;;17.80;99.90;;;;;;4977770;28;20046;-64
2022/05/11 09:34:03;;;;;;;11.43;2.45;;;18.00;99.90;;;;;;4981623;28;20044;-65
2022/05/11 09:36:38;;;;;;;15.68;3.03;;;18.20;99.90;;;;;;4962615;28;20053;-65
2022/05/11 09:39:15;;;;;;;12.25;2.45;;;18.20;99.90;;;;;;4978382;28;20038;-64
2022/05/11 09:41:50;;;;;;;15.38;2.60;;;18.30;99.90;;;;;;4978962;28;20050;-64
2022/05/11 09:44:26;;;;;;;11.68;2.85;;;18.20;99.90;;;;;;4996766;28;20815;-66
2022/05/11 09:46:53;;;;;;;13.43;2.78;;;18.30;99.90;;;;;;4998114;28;20056;-66
2022/05/11 09:49:19;;;;;;;10.18;2.80;;;17.90;99.90;;;;;;4982608;28;20042;-66
2022/05/11 09:51:50;;;;;;;14.70;3.15;;;17.90;99.90;;;;;;5000566;28;20042;-66
2022/05/11 09:54:53;;;;;;;12.82;2.80;;;17.90;99.90;;;;;;5008815;28;20140;-65
2022/05/11 09:57:23;;;;;;;13.40;2.45;;;18.30;99.90;;;;;;4950170;28;20463;-66
2022/05/11 09:59:52;;;;;;;11.32;2.65;;;18.70;99.90;;;;;;5004433;28;20048;-66
2022/05/11 10:02:37;;;;;;;16.02;3.00;;;18.70;99.90;;;;;;4984582;28;20125;-66
2022/05/11 10:05:13;;;;;;;15.70;2.35;;;18.80;99.90;;;;;;4992971;28;20539;-66
2022/05/11 10:07:49;;;;;;;10.35;2.58;;;18.50;99.90;;;;;;5007364;28;20077;-65
2022/05/11 10:10:32;;;;;;;15.32;3.63;;;18.60;99.90;;;;;;5005227;28;20484;-65
2022/05/11 10:13:11;;;;;;;13.70;3.25;;;18.30;99.90;;;;;;4992652;28;20038;-66
2022/05/11 10:21:50;;;;;;;7.35;1.90;;;18.20;99.90;;;;;;5003107;28;20050;-67
2022/05/11 10:24:34;;;;;;;7.30;1.67;;;18.30;99.90;;;;;;4915104;29;20035;-64
2022/05/11 10:27:19;;;;;;;15.57;2.47;;;18.00;99.90;;;;;;5004956;28;20058;-66
2022/05/11 10:30:12;;;;;;;14.65;2.97;;;18.30;99.90;;;;;;4992234;28;20095;-67
2022/05/11 10:32:55;;;;;;;9.13;1.80;;;18.40;99.90;;;;;;4992911;28;20099;-66
2022/05/11 10:35:36;;;;;;;15.32;2.63;;;18.60;99.90;;;;;;5011542;28;20049;-67
2022/05/11 10:38:14;;;;;;;12.63;2.78;;;18.70;99.90;;;;;;4993602;28;20054;-67
2022/05/11 10:40:55;;;;;;;5.20;1.42;;;18.60;99.90;;;;;;5011496;28;20133;-66
2022/05/11 10:43:46;;;;;;;12.38;1.88;;;18.40;99.90;;;;;;4994070;28;20046;-67
2022/05/11 10:46:18;;;;;;;8.75;2.60;;;18.60;99.90;;;;;;4984417;28;20060;-66
2022/05/11 10:49:01;;;;;;;15.25;2.10;;;18.50;99.90;;;;;;4991813;28;20117;-67
2022/05/11 10:51:35;;;;;;;12.60;2.03;;;18.40;99.90;;;;;;4986694;28;20412;-66
2022/05/11 10:54:23;;;;;;;12.27;2.38;;;18.50;99.90;;;;;;4982748;28;20042;-66
2022/05/11 10:57:09;;;;;;;16.17;2.33;;;18.70;99.90;;;;;;4997235;28;20571;-66
2022/05/11 11:00:04;;;;;;;13.25;2.70;;;18.70;99.90;;;;;;5002299;28;20049;-66
2022/05/11 11:03:03;;;;;;;11.10;1.83;;;19.00;99.90;;;;;;4991233;28;20047;-64
2022/05/11 11:09:09;;;;;;;13.93;2.25;;;18.90;99.90;;;;;;4980239;28;20049;-65
2022/05/11 11:12:03;;;;;;;7.22;1.42;;;18.80;99.90;;;;;;4991527;28;20089;-69
2022/05/11 11:14:36;;;;;;;7.65;1.15;;;19.00;99.90;;;;;;5009762;28;20061;-67
2022/05/11 11:17:05;;;;;;;5.28;0.80;;;19.20;99.90;;;;;;5011361;28;20050;-65
2022/05/11 11:19:32;;;;;;;4.07;1.30;;;19.20;99.90;;;;;;4992731;28;20053;-66
2022/05/11 11:22:00;;;;;;;11.77;2.53;;;19.00;99.90;;;;;;5010587;28;20049;-65
2022/05/11 11:24:27;;;;;;;7.80;1.80;;;19.10;99.90;;;;;;5009567;28;20056;-68
2022/05/11 11:27:05;;;;;;;10.70;3.40;;;19.10;99.90;;;;;;5004549;28;20041;-68
2022/05/11 11:29:58;;;;;;;6.05;1.25;;;19.20;99.90;;;;;;4975886;28;20436;-66
2022/05/11 11:32:23;;;;;;;8.60;2.10;;;19.50;99.90;;;;;;4977690;28;20108;-65
2022/05/11 11:35:35;;;;;;;6.50;1.25;;;19.10;99.90;;;;;;4995080;28;20448;-67
2022/05/11 11:38:01;;;;;;;5.57;1.10;;;19.50;99.90;;;;;;4987135;28;20483;-67
2022/05/11 11:40:30;;;;;;;14.35;1.63;;;19.50;99.90;;;;;;4988937;28;20050;-68
2022/05/11 11:42:56;;;;;;;9.75;1.23;;;19.30;99.90;;;;;;5008207;28;20045;-67
2022/05/11 11:45:25;;;;;;;8.25;1.70;;;19.10;99.90;;;;;;5008554;28;20128;-67
2022/05/11 11:48:24;;;;;;;14.40;2.20;;;19.30;99.90;;;;;;5006391;28;20400;-66
2022/05/11 11:50:58;;;;;;;7.75;1.40;;;19.40;99.90;;;;;;4987720;28;20057;-67
2022/05/11 11:53:35;;;;;;;5.90;1.63;;;19.50;99.90;;;;;;4989790;28;20041;-68
2022/05/11 11:56:25;;;;;;;9.75;2.42;;;19.70;99.90;;;;;;5008181;28;20046;-67
2022/05/11 11:59:02;;;;;;;6.95;1.65;;;19.60;99.90;;;;;;5004787;28;20073;-67
2022/05/11 12:01:31;;;;;;;11.35;1.52;;;19.30;99.90;;;;;;4990292;28;20097;-66
2022/05/11 12:04:01;;;;;;;11.27;1.85;;;19.40;99.90;;;;;;5007945;28;20411;-67
2022/05/11 12:15:01;;;;;;;12.57;2.38;;;19.60;99.90;;;;;;4990815;28;20049;-66
2022/05/11 12:17:39;;;;;;;9.15;1.63;;;19.70;99.90;;;;;;4990338;28;20042;-66
2022/05/11 12:20:17;;;;;;;9.25;1.45;;;19.70;99.90;;;;;;4991495;28;20073;-67
2022/05/11 12:22:52;;;;;;;14.73;1.75;;;19.70;99.90;;;;;;4991060;28;20121;-67
2022/05/11 12:25:28;;;;;;;11.35;3.08;;;19.70;99.90;;;;;;5006213;28;20044;-66
2022/05/11 12:27:55;;;;;;;12.25;2.05;;;19.70;99.90;;;;;;4990518;28;20050;-68
2022/05/11 12:30:39;;;;;;;17.13;2.33;;;19.80;99.90;;;;;;5006047;28;20053;-66
2022/05/11 12:33:07;;;;;;;8.77;2.00;;;19.60;99.90;;;;;;4991159;28;20069;-66
2022/05/11 12:35:36;;;;;;;16.95;1.98;;;19.90;99.90;;;;;;5006305;28;20048;-71
2022/05/11 12:38:26;;;;;;;8.07;2.10;;;20.00;99.90;;;;;;4991302;28;20053;-66
2022/05/11 12:40:53;;;;;;;10.45;1.65;;;19.80;99.90;;;;;;5007111;28;20060;-67
2022/05/11 12:43:28;;;;;;;15.10;2.03;;;19.90;99.90;;;;;;5005797;28;20121;-67
2022/05/11 12:46:09;;;;;;;11.32;1.58;;;19.90;99.90;;;;;;5006712;28;20034;-66
2022/05/11 12:48:39;;;;;;;9.50;1.80;;;19.60;99.90;;;;;;4974577;28;20050;-66
2022/05/11 12:51:05;;;;;;;8.82;1.90;;;19.80;99.90;;;;;;4992270;28;20043;-66
2022/05/11 12:53:37;;;;;;;6.05;1.60;;;19.90;99.90;;;;;;4993160;28;20056;-66
2022/05/11 12:56:08;;;;;;;12.05;1.95;;;19.70;99.90;;;;;;5009211;28;20122;-66
2022/05/11 12:58:35;;;;;;;7.80;2.03;;;20.00;99.90;;;;;;5005415;28;20386;-67
2022/05/11 13:01:03;;;;;;;13.27;2.75;;;19.80;99.90;;;;;;5004549;28;20046;-67
2022/05/11 13:03:33;;;;;;;13.27;2.33;;;19.60;99.90;;;;;;4988232;28;20045;-67
2022/05/11 13:06:03;;;;;;;12.63;2.28;;;19.90;99.90;;;;;;5003826;28;20397;-67
2022/05/11 13:08:38;;;;;;;10.55;2.35;;;19.70;99.90;;;;;;5003805;28;20176;-67
2022/05/11 13:11:07;;;;;;;10.07;1.80;;;21.10;99.90;;;;;;5006999;28;20050;-67
2022/05/11 13:13:35;;;;;;;17.90;1.83;;;19.70;99.90;;;;;;4989641;28;20053;-67
2022/05/11 13:16:31;;;;;;;12.13;2.00;;;19.60;99.90;;;;;;5006113;28;20042;-67
2022/05/11 13:19:32;;;;;;;13.35;2.13;;;19.60;99.90;;;;;;5008784;28;20558;-67
2022/05/11 13:22:05;;;;;;;10.65;1.65;;;19.50;99.90;;;;;;4995856;28;20054;-67
2022/05/11 13:24:46;;;;;;;11.65;2.00;;;19.40;99.90;;;;;;5011325;28;20057;-67
2022/05/11 13:27:37;;;;;;;13.45;2.47;;;19.40;99.90;;;;;;5006047;28;20042;-67
2022/05/11 13:30:32;;;;;;;8.18;1.45;;;19.90;99.90;;;;;;5010649;28;20050;-67
2022/05/11 13:33:03;;;;;;;8.38;1.40;;;20.00;99.90;;;;;;4994949;28;20566;-67
2022/05/11 13:35:38;;;;;;;12.40;2.25;;;19.90;99.90;;;;;;4993447;28;20052;-67
2022/05/11 13:38:18;;;;;;;10.98;1.88;;;19.90;99.90;;;;;;5012504;28;20046;-67
2022/05/11 13:41:00;;;;;;;13.23;1.67;;;19.80;99.90;;;;;;5010155;28;20168;-67
2022/05/11 13:43:32;;;;;;;6.20;1.40;;;19.70;99.90;;;;;;5012217;28;20075;-67
2022/05/11 13:46:10;;;;;;;11.35;1.88;;;19.90;99.90;;;;;;4994160;28;20443;-67
2022/05/11 13:48:45;;;;;;;11.95;1.70;;;20.00;99.90;;;;;;4978887;28;20049;-67
2022/05/11 13:51:15;;;;;;;;;;;19.80;99.90;;;;;;5011790;28;20041;-67
2022/05/11 13:53:41;;;;;;;17.27;2.38;;;19.90;99.90;;;;;;4988729;28;19928;-67
2022/05/11 13:56:16;;;;;;;9.40;1.50;;;20.20;99.90;;;;;;5012269;28;20446;-67